createdAt,value
2023-01-29T00:02:57.902Z,20.25
2023-01-29T00:13:00.843Z,21.45
2023-01-29T00:23:03.984Z,22.75
2023-01-29T00:33:07.637Z,22.08
2023-01-29T00:43:30.499Z,22.75
2023-01-29T00:53:33.866Z,22.77
2023-01-29T01:03:42.184Z,22.73
2023-01-29T01:13:45.469Z,24.38
2023-01-29T01:23:48.681Z,25.60
2023-01-29T01:33:51.674Z,25.48
2023-01-29T01:44:03.886Z,25.33
2023-01-29T01:54:11.726Z,24.70
2023-01-29T02:04:37.254Z,24.83
2023-01-29T02:14:43.422Z,26.17
2023-01-29T02:25:37.181Z,24.52
2023-01-29T02:35:46.524Z,24.45
2023-01-29T02:45:59.123Z,23.52
2023-01-29T02:56:27.521Z,23.38
2023-01-29T03:06:35.319Z,22.48
2023-01-29T03:16:47.908Z,22.17
2023-01-29T03:27:09.643Z,21.77
2023-01-29T03:37:25.462Z,21.92
2023-01-29T03:47:48.263Z,20.85
2023-01-29T03:57:58.928Z,20.25
2023-01-29T04:08:08.264Z,20.20
2023-01-29T04:18:10.962Z,18.87
2023-01-29T04:28:47.415Z,18.77
2023-01-29T04:39:04.122Z,17.70
2023-01-29T04:49:55.160Z,18.02
2023-01-29T05:00:07.428Z,17.40
2023-01-29T05:10:13.016Z,16.17
2023-01-29T05:20:15.758Z,15.93
2023-01-29T05:30:19.487Z,15.23
2023-01-29T05:40:22.600Z,15.07
2023-01-29T05:50:27.593Z,14.10
2023-01-29T06:00:30.648Z,12.75
2023-01-29T06:10:33.828Z,13.77
2023-01-29T06:20:37.207Z,12.50
2023-01-29T06:30:40.041Z,11.73
2023-01-29T06:40:43.152Z,11.10
2023-01-29T06:50:46.870Z,10.45
2023-01-29T07:00:49.488Z,10.30
2023-01-29T07:10:52.565Z,9.68
2023-01-29T07:20:55.894Z,9.02
2023-01-29T07:30:59.313Z,9.77
2023-01-29T07:41:03.258Z,9.35
2023-01-29T07:51:06.304Z,9.13
2023-01-29T08:01:09.408Z,8.82
2023-01-29T08:11:12.465Z,8.73
2023-01-29T08:21:15.019Z,9.40
2023-01-29T08:31:22.532Z,9.90
2023-01-29T08:41:25.057Z,9.27
2023-01-29T08:51:28.175Z,9.20
2023-01-29T09:01:31.346Z,9.20
2023-01-29T09:11:34.387Z,8.85
2023-01-29T09:21:36.880Z,8.82
2023-01-29T09:31:39.762Z,8.60
2023-01-29T09:42:05.844Z,8.32
2023-01-29T09:52:16.363Z,8.85
2023-01-29T10:02:38.822Z,8.45
2023-01-29T10:13:03.557Z,7.75
2023-01-29T10:23:27.186Z,7.72
2023-01-29T10:33:49.018Z,8.65
2023-01-29T10:44:07.341Z,8.00
2023-01-29T10:54:22.934Z,7.50
2023-01-29T11:04:28.365Z,7.70
2023-01-29T11:14:51.714Z,7.88
2023-01-29T11:25:16.223Z,8.00
2023-01-29T11:35:18.511Z,8.48
2023-01-29T11:45:32.279Z,8.15
2023-01-29T11:55:49.731Z,8.55
2023-01-29T12:06:22.932Z,8.80
2023-01-29T12:16:48.284Z,8.15
2023-01-29T12:27:16.847Z,7.82
2023-01-29T12:37:38.140Z,8.10
2023-01-29T12:47:50.003Z,7.32
2023-01-29T12:58:04.738Z,7.95
2023-01-29T13:08:26.853Z,7.32
2023-01-29T13:18:36.274Z,7.30
2023-01-29T13:28:39.889Z,7.30
2023-01-29T13:38:45.159Z,7.30
2023-01-29T13:48:50.993Z,6.45
2023-01-29T13:58:55.062Z,6.57
2023-01-29T14:08:57.975Z,6.80
2023-01-29T14:19:02.066Z,6.43
2023-01-29T14:29:32.571Z,5.75
2023-01-29T14:39:42.979Z,5.45
2023-01-29T14:49:57.846Z,5.65
2023-01-29T15:00:06.531Z,5.40
2023-01-29T15:10:22.728Z,5.00
2023-01-29T15:20:35.798Z,5.40
2023-01-29T15:30:38.956Z,4.72
2023-01-29T15:40:42.220Z,5.10
2023-01-29T15:50:45.567Z,5.43
2023-01-29T16:00:54.244Z,4.88
2023-01-29T16:11:00.670Z,5.10
2023-01-29T16:21:25.399Z,4.55
2023-01-29T16:31:29.818Z,5.22
2023-01-29T16:41:36.123Z,4.25
2023-01-29T16:51:39.590Z,4.35
2023-01-29T17:01:43.507Z,4.28
2023-01-29T17:11:50.289Z,4.72
2023-01-29T17:37:10.784Z,7.50
